Time;durP1;ratioP1;P1;durP2;ratioP2;P2;SDS_P1;SDS_P2;PMS_P1;PMS_P2;Temp;Humidity;BMP_temperature;BMP_pressure;BME280_temperature;BME280_humidity;BME280_pressure;Samples;Min_cycle;Max_cycle;Signal;HPM_P1;HPM_P2
2023/05/19 03:01:54;;;;;;;;;;;16.60;46.50;;;;;;5251859;23;44845;-59
2023/05/19 03:04:19;;;;;;;;;;;16.60;46.50;;;;;;4981773;28;45347;-61
2023/05/19 03:06:45;;;;;;;;;;;16.60;46.40;;;;;;4991530;28;45357;-61
2023/05/19 03:09:12;;;;;;;;;;;16.60;46.40;;;;;;4993797;28;45187;-60
2023/05/19 03:11:38;;;;;;;;;;;16.60;46.40;;;;;;4961486;28;44781;-59
2023/05/19 03:14:03;;;;;;;;;;;16.60;46.50;;;;;;4982144;28;45219;-61
2023/05/19 03:16:29;;;;;;;;;;;16.60;46.50;;;;;;4969121;28;45630;-61
2023/05/19 03:18:54;;;;;;;;;;;16.60;46.50;;;;;;4981455;28;45224;-61
2023/05/19 03:21:20;;;;;;;;;;;16.60;46.50;;;;;;4975614;28;44804;-60
2023/05/19 03:23:46;;;;;;;;;;;16.50;46.50;;;;;;4978720;28;45112;-60
2023/05/19 03:26:11;;;;;;;;;;;16.60;46.60;;;;;;4974639;28;45033;-61
2023/05/19 03:28:37;;;;;;;;;;;16.60;46.70;;;;;;4980483;28;44854;-61
2023/05/19 03:31:02;;;;;;;;;;;16.50;46.70;;;;;;4967357;28;45075;-60
2023/05/19 03:33:28;;;;;;;;;;;16.50;46.70;;;;;;4967945;28;45085;-60
2023/05/19 03:35:55;;;;;;;;;;;16.50;46.80;;;;;;4973931;28;45899;-60
2023/05/19 03:38:20;;;;;;;;;;;16.50;46.70;;;;;;4976069;28;46030;-59
2023/05/19 03:40:46;;;;;;;;;;;16.60;46.70;;;;;;4974106;28;46042;-59
2023/05/19 03:43:12;;;;;;;;;;;16.60;46.70;;;;;;4988200;28;44881;-61
2023/05/19 03:45:37;;;;;;;;;;;16.60;46.70;;;;;;4974542;28;44707;-60
2023/05/19 03:48:03;;;;;;;;;;;16.60;46.80;;;;;;4961490;28;45462;-60
2023/05/19 03:50:30;;;;;;;;;;;16.60;46.70;;;;;;4975860;28;44988;-60
2023/05/19 03:52:56;;;;;;;;;;;16.60;46.60;;;;;;4985881;28;45067;-60
2023/05/19 03:55:21;;;;;;;;;;;16.70;46.60;;;;;;4976183;28;45107;-60
2023/05/19 03:57:47;;;;;;;;;;;16.70;46.60;;;;;;4967386;28;45111;-60
2023/05/19 04:00:13;;;;;;;;;;;16.70;46.60;;;;;;4959657;28;45583;-59
2023/05/19 04:02:39;;;;;;;;;;;16.70;46.70;;;;;;4957594;28;46381;-60
2023/05/19 04:05:05;;;;;;;;;;;16.60;46.70;;;;;;4979073;28;44789;-60
2023/05/19 04:07:31;;;;;;;;;;;16.60;46.90;;;;;;4963191;28;45892;-60
2023/05/19 04:09:57;;;;;;;;;;;16.60;46.90;;;;;;4983198;28;44914;-61
2023/05/19 04:12:22;;;;;;;;;;;16.60;46.90;;;;;;4978715;28;45214;-60
2023/05/19 04:14:48;;;;;;;;;;;16.60;47.00;;;;;;4985206;28;45224;-60
2023/05/19 04:17:13;;;;;;;;;;;16.60;47.10;;;;;;4972343;28;46008;-60
2023/05/19 04:19:39;;;;;;;;;;;16.60;47.10;;;;;;4968730;28;45247;-61
2023/05/19 04:22:04;;;;;;;;;;;16.60;47.10;;;;;;4981198;28;45093;-60
2023/05/19 04:24:30;;;;;;;;;;;16.60;47.20;;;;;;4983521;28;45301;-61
2023/05/19 04:26:55;;;;;;;;;;;16.60;47.10;;;;;;4978561;28;46276;-61
2023/05/19 04:29:22;;;;;;;;;;;16.60;47.20;;;;;;4969060;28;45261;-60
2023/05/19 04:31:48;;;;;;;;;;;16.60;47.20;;;;;;4975722;28;45170;-61
2023/05/19 04:34:13;;;;;;;;;;;16.60;47.30;;;;;;4982355;28;45409;-60
2023/05/19 04:36:39;;;;;;;;;;;16.60;47.30;;;;;;4975965;28;46077;-60
2023/05/19 04:39:08;;;;;;;;;;;16.60;47.20;;;;;;4982838;28;44735;-61
2023/05/19 04:41:33;;;;;;;;;;;16.60;47.30;;;;;;4978746;28;45290;-61
2023/05/19 04:43:59;;;;;;;;;;;16.70;47.30;;;;;;4985260;28;45326;-60
2023/05/19 04:46:25;;;;;;;;;;;16.60;47.20;;;;;;4976795;28;46344;-61
2023/05/19 04:48:51;;;;;;;;;;;16.70;47.30;;;;;;4980308;28;45515;-60
2023/05/19 04:51:18;;;;;;;;;;;16.60;47.30;;;;;;4982159;28;45192;-60
2023/05/19 04:53:44;;;;;;;;;;;16.70;47.50;;;;;;4986170;28;44625;-61
2023/05/19 04:56:12;;;;;;;;;;;16.60;47.50;;;;;;4977789;28;46078;-60
2023/05/19 04:58:38;;;;;;;;;;;16.60;47.50;;;;;;4984851;28;44622;-61
2023/05/19 05:01:03;;;;;;;;;;;16.70;47.60;;;;;;4957807;28;45616;-60
2023/05/19 05:03:29;;;;;;;;;;;16.70;47.70;;;;;;4970739;28;44939;-60
2023/05/19 05:05:55;;;;;;;;;;;16.70;47.80;;;;;;4978227;28;45463;-61
2023/05/19 05:08:22;;;;;;;;;;;16.60;47.80;;;;;;4986483;28;45016;-61
2023/05/19 05:10:53;;;;;;;;;;;16.60;47.90;;;;;;4979889;28;45049;-61
2023/05/19 05:13:20;;;;;;;;;;;16.70;48.00;;;;;;4984674;28;44936;-60
2023/05/19 05:15:45;;;;;;;;;;;16.70;48.10;;;;;;4972844;28;45788;-61
2023/05/19 05:18:11;;;;;;;;;;;16.60;48.10;;;;;;4987149;28;45165;-61
2023/05/19 05:20:37;;;;;;;;;;;16.70;48.10;;;;;;4978403;28;45244;-61
2023/05/19 05:23:03;;;;;;;;;;;16.60;48.70;;;;;;4967025;28;45123;-60
2023/05/19 05:25:28;;;;;;;;;;;16.60;48.20;;;;;;4974821;28;45633;-60
2023/05/19 05:27:54;;;;;;;;;;;16.60;48.20;;;;;;4962448;28;45279;-61
2023/05/19 05:30:19;;;;;;;;;;;16.60;48.20;;;;;;4940573;28;45135;-64
2023/05/19 05:32:45;;;;;;;;;;;16.70;48.30;;;;;;4979701;28;45328;-60
2023/05/19 05:35:10;;;;;;;;;;;16.70;48.30;;;;;;4962990;28;45634;-62
2023/05/19 05:37:36;;;;;;;;;;;16.70;48.60;;;;;;4965207;28;45674;-61
2023/05/19 05:40:03;;;;;;;;;;;16.70;48.50;;;;;;4971354;28;45405;-63
2023/05/19 05:42:29;;;;;;;;;;;16.70;48.40;;;;;;4988983;28;45003;-63
2023/05/19 05:44:55;;;;;;;;;;;16.80;48.30;;;;;;4983545;28;45880;-61
2023/05/19 05:47:20;;;;;;;;;;;16.80;48.40;;;;;;4974122;28;45065;-61
2023/05/19 05:49:47;;;;;;;;;;;16.80;48.40;;;;;;4984557;28;44914;-60
2023/05/19 05:52:12;;;;;;;;;;;16.80;48.40;;;;;;4980935;28;45292;-62
2023/05/19 05:54:38;;;;;;;;;;;16.80;48.50;;;;;;4970472;28;46081;-62
2023/05/19 05:57:04;;;;;;;;;;;16.80;48.50;;;;;;4978110;28;45283;-61
2023/05/19 05:59:29;;;;;;;;;;;16.90;48.50;;;;;;4968276;28;44740;-62
2023/05/19 06:01:55;;;;;;;;;;;16.90;48.50;;;;;;4972529;28;45316;-61
2023/05/19 06:04:20;;;;;;;;;;;16.90;48.50;;;;;;4981857;28;46133;-62
2023/05/19 06:06:46;;;;;;;;;;;17.00;48.60;;;;;;4973916;28;45079;-62
2023/05/19 06:09:11;;;;;;;;;;;17.00;48.70;;;;;;4981687;28;45041;-62
2023/05/19 06:11:37;;;;;;;;;;;17.00;48.70;;;;;;4978440;28;45240;-62
2023/05/19 06:14:03;;;;;;;;;;;17.00;48.70;;;;;;4969778;28;46208;-61
2023/05/19 06:16:28;;;;;;;;;;;17.00;48.60;;;;;;4975420;28;45410;-65
2023/05/19 06:18:54;;;;;;;;;;;17.00;48.60;;;;;;4985117;28;45044;-61
2023/05/19 06:21:20;;;;;;;;;;;17.10;48.80;;;;;;4980874;28;44749;-63
2023/05/19 06:23:46;;;;;;;;;;;17.10;48.70;;;;;;4983069;28;45145;-63
2023/05/19 06:26:11;;;;;;;;;;;17.10;48.60;;;;;;4978140;28;45152;-60
2023/05/19 06:28:37;;;;;;;;;;;17.20;48.60;;;;;;4984443;28;45207;-62
2023/05/19 06:31:02;;;;;;;;;;;17.20;48.30;;;;;;4975685;28;45237;-62
2023/05/19 06:33:28;;;;;;;;;;;17.30;48.30;;;;;;4980579;28;45416;-61
2023/05/19 06:35:53;;;;;;;;;;;17.30;48.30;;;;;;4974102;28;44852;-61
2023/05/19 06:38:18;;;;;;;;;;;17.30;48.20;;;;;;4983940;28;45011;-63
2023/05/19 06:40:44;;;;;;;;;;;17.40;48.20;;;;;;4978055;28;45442;-64
2023/05/19 06:43:09;;;;;;;;;;;17.40;48.10;;;;;;4967215;28;46416;-62
2023/05/19 06:45:35;;;;;;;;;;;17.50;48.10;;;;;;4977892;28;44785;-61
2023/05/19 06:48:00;;;;;;;;;;;17.50;47.90;;;;;;4981135;28;44766;-63
2023/05/19 06:50:26;;;;;;;;;;;17.50;47.70;;;;;;4958377;28;45121;-62
2023/05/19 06:52:51;;;;;;;;;;;17.60;47.70;;;;;;4982438;28;45731;-63
2023/05/19 06:55:17;;;;;;;;;;;17.60;47.60;;;;;;4967726;28;45308;-61
2023/05/19 06:57:42;;;;;;;;;;;17.70;47.40;;;;;;4979578;28;45077;-62
2023/05/19 07:00:10;;;;;;;;;;;17.70;47.70;;;;;;4976472;28;44898;-62
2023/05/19 07:02:36;;;;;;;;;;;17.70;47.40;;;;;;4962113;28;45236;-62
2023/05/19 07:05:02;;;;;;;;;;;17.70;47.20;;;;;;4965769;28;45298;-61
2023/05/19 07:07:29;;;;;;;;;;;17.80;47.30;;;;;;4964835;28;59270;-62
2023/05/19 07:09:55;;;;;;;;;;;17.80;47.30;;;;;;4967663;28;44738;-62
2023/05/19 07:12:20;;;;;;;;;;;17.90;47.10;;;;;;4977748;28;46223;-62
2023/05/19 07:14:46;;;;;;;;;;;17.90;47.10;;;;;;4984590;28;44975;-64
2023/05/19 07:17:11;;;;;;;;;;;17.90;46.90;;;;;;4975001;28;44905;-64
2023/05/19 07:19:37;;;;;;;;;;;18.00;47.00;;;;;;4980334;28;46053;-63
2023/05/19 07:22:02;;;;;;;;;;;18.00;47.00;;;;;;4976070;28;46036;-64
2023/05/19 07:24:29;;;;;;;;;;;18.00;46.90;;;;;;4983534;28;45327;-61
2023/05/19 07:26:54;;;;;;;;;;;18.00;47.00;;;;;;4960008;28;44894;-63
2023/05/19 07:29:20;;;;;;;;;;;18.10;47.00;;;;;;4984191;28;45090;-62
2023/05/19 07:31:45;;;;;;;;;;;18.10;47.00;;;;;;4972064;28;45653;-60
2023/05/19 07:34:11;;;;;;;;;;;18.10;46.80;;;;;;4981238;28;45039;-63
2023/05/19 07:36:36;;;;;;;;;;;18.20;46.80;;;;;;4980925;28;45144;-61
2023/05/19 07:39:02;;;;;;;;;;;18.20;46.80;;;;;;4983373;28;45269;-63
2023/05/19 07:41:27;;;;;;;;;;;18.20;46.70;;;;;;4974086;28;45329;-62
2023/05/19 07:43:53;;;;;;;;;;;18.30;46.80;;;;;;4978878;28;45710;-62
2023/05/19 07:46:19;;;;;;;;;;;18.30;46.70;;;;;;4976018;28;46351;-64
2023/05/19 07:48:44;;;;;;;;;;;18.30;46.50;;;;;;4983019;28;45496;-64
2023/05/19 07:51:11;;;;;;;;;;;18.30;46.60;;;;;;4981769;28;46047;-62
2023/05/19 07:53:36;;;;;;;;;;;18.40;46.50;;;;;;4986695;28;44859;-62
2023/05/19 07:56:02;;;;;;;;;;;18.40;46.50;;;;;;4981297;28;45042;-62
2023/05/19 07:58:27;;;;;;;;;;;18.40;46.60;;;;;;4986621;28;45285;-63
2023/05/19 08:00:55;;;;;;;;;;;18.50;46.40;;;;;;4973850;28;45787;-63
2023/05/19 08:03:22;;;;;;;;;;;18.50;46.30;;;;;;4986661;28;45001;-61
2023/05/19 08:05:47;;;;;;;;;;;18.50;46.40;;;;;;4979147;28;44883;-62
2023/05/19 08:08:15;;;;;;;;;;;18.60;46.30;;;;;;4986126;28;45881;-64
2023/05/19 08:10:41;;;;;;;;;;;18.60;46.30;;;;;;4976139;28;45987;-61
2023/05/19 08:13:06;;;;;;;;;;;18.70;46.20;;;;;;4985816;28;45032;-64
2023/05/19 08:15:32;;;;;;;;;;;18.70;46.10;;;;;;4980949;28;45023;-62
2023/05/19 08:17:57;;;;;;;;;;;18.70;45.80;;;;;;4977581;28;45093;-63
2023/05/19 08:20:23;;;;;;;;;;;18.80;45.70;;;;;;4980360;28;45965;-63
2023/05/19 08:22:48;;;;;;;;;;;18.80;45.70;;;;;;4983619;28;44667;-63
2023/05/19 08:25:14;;;;;;;;;;;18.80;45.70;;;;;;4979915;28;45323;-62
2023/05/19 08:27:39;;;;;;;;;;;18.90;45.70;;;;;;4963646;28;45015;-62
2023/05/19 08:30:05;;;;;;;;;;;18.90;45.40;;;;;;4964565;28;45081;-63
2023/05/19 08:32:31;;;;;;;;;;;18.90;45.40;;;;;;4976095;28;44846;-63
2023/05/19 08:34:56;;;;;;;;;;;18.90;45.50;;;;;;4966279;28;45150;-62
2023/05/19 08:37:22;;;;;;;;;;;18.90;45.40;;;;;;4958871;28;45219;-63
2023/05/19 08:39:47;;;;;;;;;;;18.90;45.60;;;;;;4979772;28;46452;-66
2023/05/19 08:42:13;;;;;;;;;;;19.00;45.40;;;;;;4976987;28;45195;-63
2023/05/19 08:44:38;;;;;;;;;;;19.00;45.30;;;;;;4982508;28;45356;-64
2023/05/19 08:47:05;;;;;;;;;;;19.00;45.20;;;;;;4955359;28;45589;-61
2023/05/19 08:49:34;;;;;;;;;;;19.10;45.40;;;;;;4981354;28;46272;-64
2023/05/19 08:52:05;;;;;;;;;;;19.10;45.40;;;;;;4959903;28;46298;-62
2023/05/19 08:54:38;;;;;;;;;;;19.00;45.00;;;;;;4984461;28;45087;-63
2023/05/19 08:57:04;;;;;;;;;;;19.10;45.20;;;;;;4959924;28;45191;-62
2023/05/19 08:59:30;;;;;;;;;;;19.10;44.90;;;;;;4960922;28;46356;-62
2023/05/19 09:01:55;;;;;;;;;;;19.10;44.50;;;;;;4968610;28;44759;-63
2023/05/19 09:04:22;;;;;;;;;;;19.20;44.30;;;;;;4982907;28;45064;-65
2023/05/19 09:06:49;;;;;;;;;;;19.20;44.30;;;;;;4979549;28;44705;-64
2023/05/19 09:09:14;;;;;;;;;;;19.10;44.00;;;;;;4980612;28;46048;-62
2023/05/19 09:11:40;;;;;;;;;;;19.20;44.20;;;;;;4975857;28;45198;-64
2023/05/19 09:14:05;;;;;;;;;;;19.20;44.00;;;;;;4965845;28;44977;-62
2023/05/19 09:16:32;;;;;;;;;;;19.20;44.10;;;;;;4958460;28;45911;-63
2023/05/19 09:18:59;;;;;;;;;;;19.20;44.10;;;;;;4982686;28;46295;-63
2023/05/19 09:21:29;;;;;;;;;;;19.20;44.30;;;;;;4975235;28;45061;-62
2023/05/19 09:23:55;;;;;;;;;;;19.20;44.40;;;;;;4961303;28;45062;-63
2023/05/19 09:26:22;;;;;;;;;;;19.20;44.20;;;;;;4977191;28;44957;-62
2023/05/19 09:28:47;;;;;;;;;;;19.20;44.00;;;;;;4984338;28;45582;-63
2023/05/19 09:31:13;;;;;;;;;;;19.20;43.80;;;;;;4956501;28;45736;-64
2023/05/19 09:33:39;;;;;;;;;;;19.20;43.60;;;;;;4945950;28;45087;-63
2023/05/19 09:36:07;;;;;;;;;;;19.20;43.80;;;;;;4958500;28;45371;-62
2023/05/19 09:38:32;;;;;;;;;;;19.20;43.60;;;;;;4982039;28;46070;-64
2023/05/19 09:40:58;;;;;;;;;;;19.20;43.80;;;;;;4960189;28;44998;-62
2023/05/19 09:43:27;;;;;;;;;;;19.20;44.00;;;;;;4980601;28;45039;-61
2023/05/19 09:46:02;;;;;;;;;;;19.20;44.70;;;;;;4955032;28;45123;-63
2023/05/19 09:48:29;;;;;;;;;;;19.30;44.00;;;;;;4963370;28;46310;-62
2023/05/19 09:50:56;;;;;;;;;;;19.20;44.00;;;;;;4976621;28;44792;-63
2023/05/19 09:53:21;;;;;;;;;;;19.30;44.70;;;;;;4977802;28;45773;-62
2023/05/19 09:55:47;;;;;;;;;;;19.30;44.00;;;;;;4976422;28;45436;-63
2023/05/19 09:58:19;;;;;;;;;;;19.30;43.90;;;;;;4977861;28;46074;-62
2023/05/19 10:00:45;;;;;;;;;;;19.30;43.90;;;;;;4969257;28;44760;-63
2023/05/19 10:03:11;;;;;;;;;;;19.40;43.90;;;;;;4975743;28;46162;-64
2023/05/19 10:05:36;;;;;;;;;;;19.40;43.70;;;;;;4973521;28;45232;-64
2023/05/19 10:08:05;;;;;;;;;;;19.40;43.60;;;;;;4964010;28;45064;-62
2023/05/19 10:10:31;;;;;;;;;;;19.30;43.70;;;;;;4951903;28;46623;-64
2023/05/19 10:12:57;;;;;;;;;;;19.30;43.80;;;;;;4968332;28;45082;-63
2023/05/19 10:15:22;;;;;;;;;;;19.30;43.90;;;;;;4957711;28;45316;-63
2023/05/19 10:17:48;;;;;;;;;;;19.30;43.90;;;;;;4949362;28;49171;-63
2023/05/19 10:20:14;;;;;;;;;;;19.30;44.10;;;;;;4957797;28;44818;-63
2023/05/19 10:22:43;;;;;;;;;;;19.30;44.10;;;;;;4982974;28;45046;-63
2023/05/19 10:25:09;;;;;;;;;;;19.30;44.20;;;;;;4982447;28;45177;-63
2023/05/19 10:27:36;;;;;;;;;;;19.30;44.20;;;;;;4981742;28;45987;-63
2023/05/19 10:30:06;;;;;;;;;;;19.40;44.40;;;;;;4983594;28;45703;-65
2023/05/19 10:32:32;;;;;;;;;;;19.40;44.50;;;;;;4941939;28;45113;-63
2023/05/19 10:35:09;;;;;;;;;;;19.30;44.50;;;;;;4984326;28;45563;-64
2023/05/19 10:37:38;;;;;;;;;;;19.30;44.60;;;;;;4980680;28;45603;-63
2023/05/19 10:40:08;;;;;;;;;;;19.40;44.60;;;;;;4978690;28;44975;-66
2023/05/19 10:42:39;;;;;;;;;;;19.40;44.60;;;;;;4951200;28;45045;-64
2023/05/19 10:45:23;;;;;;;;;;;19.40;44.60;;;;;;4960880;28;45124;-65
2023/05/19 10:47:49;;;;;;;;;;;19.40;44.70;;;;;;4961961;28;45004;-65
2023/05/19 10:50:16;;;;;;;;;;;19.40;44.70;;;;;;4961097;28;45130;-64
2023/05/19 10:52:43;;;;;;;;;;;19.40;44.70;;;;;;4968095;28;45085;-63
2023/05/19 10:55:14;;;;;;;;;;;19.40;44.70;;;;;;4982776;28;44744;-66
2023/05/19 10:57:45;;;;;;;;;;;19.40;44.70;;;;;;4985277;28;45912;-63
2023/05/19 11:00:26;;;;;;;;;;;19.40;44.70;;;;;;4966340;28;44650;-64
2023/05/19 11:02:55;;;;;;;;;;;19.40;44.70;;;;;;4951244;28;45001;-63
2023/05/19 11:05:28;;;;;;;;;;;19.50;44.90;;;;;;4978211;28;45142;-63
2023/05/19 11:07:55;;;;;;;;;;;19.50;44.90;;;;;;4988935;28;45698;-63
2023/05/19 11:10:24;;;;;;;;;;;19.50;45.00;;;;;;4981314;28;45175;-63
2023/05/19 11:12:49;;;;;;;;;;;19.50;45.00;;;;;;4972018;28;45013;-63
2023/05/19 11:15:15;;;;;;;;;;;19.40;45.00;;;;;;4982943;28;45012;-63
2023/05/19 11:17:43;;;;;;;;;;;19.50;45.20;;;;;;4985640;28;45925;-65
2023/05/19 11:20:20;;;;;;;;;;;19.50;45.10;;;;;;4979356;28;44674;-63
2023/05/19 11:22:59;;;;;;;;;;;19.50;45.10;;;;;;4975473;28;45768;-65
2023/05/19 11:25:41;;;;;;;;;;;19.50;45.10;;;;;;4968799;28;44748;-64
2023/05/19 11:28:07;;;;;;;;;;;19.50;45.10;;;;;;4961348;28;45818;-63
2023/05/19 11:30:33;;;;;;;;;;;19.50;45.20;;;;;;4954435;28;45479;-65
2023/05/19 11:32:58;;;;;;;;;;;19.50;45.20;;;;;;4961235;28;44979;-64
2023/05/19 11:35:24;;;;;;;;;;;19.50;45.20;;;;;;4957387;28;45240;-63
2023/05/19 11:37:51;;;;;;;;;;;19.50;45.20;;;;;;4948209;28;46263;-63
2023/05/19 11:40:16;;;;;;;;;;;19.50;45.20;;;;;;4959305;28;45168;-63
2023/05/19 11:42:43;;;;;;;;;;;19.50;45.20;;;;;;4967989;28;45489;-64
2023/05/19 11:45:09;;;;;;;;;;;19.50;45.30;;;;;;4955280;28;45356;-64
2023/05/19 11:47:34;;;;;;;;;;;19.50;45.20;;;;;;4976318;28;46701;-63
2023/05/19 11:50:00;;;;;;;;;;;19.50;45.20;;;;;;4980087;28;44613;-64
2023/05/19 11:52:29;;;;;;;;;;;19.60;45.20;;;;;;4956344;28;45201;-63
2023/05/19 11:54:59;;;;;;;;;;;19.60;45.20;;;;;;4980070;28;45059;-64
2023/05/19 11:57:25;;;;;;;;;;;19.60;45.20;;;;;;4973550;28;45855;-66
2023/05/19 11:59:52;;;;;;;;;;;19.60;45.30;;;;;;4967766;28;44874;-65
2023/05/19 12:02:23;;;;;;;;;;;19.60;45.30;;;;;;4963510;28;45313;-63
2023/05/19 12:04:49;;;;;;;;;;;19.60;45.30;;;;;;4961463;28;45099;-64
2023/05/19 12:07:16;;;;;;;;;;;19.60;45.30;;;;;;4971072;28;46153;-62
2023/05/19 12:09:42;;;;;;;;;;;19.60;45.30;;;;;;4978114;28;44624;-63
2023/05/19 12:12:07;;;;;;;;;;;19.60;45.30;;;;;;4974419;28;45169;-63
2023/05/19 12:14:33;;;;;;;;;;;19.60;45.30;;;;;;4971889;28;44779;-64
2023/05/19 12:16:58;;;;;;;;;;;19.60;45.30;;;;;;4956086;28;45550;-63
2023/05/19 12:19:24;;;;;;;;;;;19.60;45.30;;;;;;4962457;28;44807;-63
2023/05/19 12:21:50;;;;;;;;;;;19.70;45.40;;;;;;4972683;28;44987;-63
2023/05/19 12:24:15;;;;;;;;;;;19.60;45.30;;;;;;4959144;28;44781;-63
2023/05/19 12:26:41;;;;;;;;;;;19.60;45.30;;;;;;4956653;28;45277;-63
2023/05/19 12:29:07;;;;;;;;;;;19.60;45.30;;;;;;4980323;28;45016;-66
2023/05/19 12:31:33;;;;;;;;;;;19.70;45.40;;;;;;4969189;28;45145;-63
2023/05/19 12:33:58;;;;;;;;;;;19.70;45.50;;;;;;4964859;28;45056;-63
2023/05/19 12:36:24;;;;;;;;;;;19.70;45.50;;;;;;4959889;28;46176;-63
2023/05/19 12:38:53;;;;;;;;;;;19.70;45.50;;;;;;4964621;28;44926;-63
2023/05/19 12:41:18;;;;;;;;;;;19.70;45.50;;;;;;4961772;28;45652;-65
2023/05/19 12:43:44;;;;;;;;;;;19.70;45.50;;;;;;4966213;28;44932;-63
2023/05/19 12:46:12;;;;;;;;;;;19.70;45.50;;;;;;4973341;28;46156;-63
2023/05/19 12:48:42;;;;;;;;;;;19.70;45.50;;;;;;4982855;28;45781;-63
2023/05/19 12:51:07;;;;;;;;;;;19.80;45.50;;;;;;4964474;28;45078;-64
2023/05/19 12:53:33;;;;;;;;;;;19.70;45.40;;;;;;4980828;28;44717;-63
2023/05/19 12:55:59;;;;;;;;;;;19.70;45.50;;;;;;4964488;28;45438;-63
2023/05/19 12:58:24;;;;;;;;;;;19.80;45.60;;;;;;4983553;28;45108;-62
2023/05/19 13:00:50;;;;;;;;;;;19.80;45.60;;;;;;4975437;28;45010;-65
2023/05/19 13:03:16;;;;;;;;;;;19.80;45.60;;;;;;4977907;28;44915;-64
2023/05/19 13:05:42;;;;;;;;;;;19.80;45.70;;;;;;4980082;28;45732;-63
2023/05/19 13:08:11;;;;;;;;;;;19.80;45.70;;;;;;4984543;28;44941;-64
2023/05/19 13:10:37;;;;;;;;;;;19.80;45.70;;;;;;4961542;28;45391;-63
2023/05/19 13:13:02;;;;;;;;;;;19.80;45.70;;;;;;4965275;28;45613;-64
2023/05/19 13:15:30;;;;;;;;;;;19.90;45.70;;;;;;4972356;28;46349;-62
2023/05/19 13:17:56;;;;;;;;;;;19.90;45.70;;;;;;4978425;28;45077;-63
2023/05/19 13:20:21;;;;;;;;;;;19.90;45.80;;;;;;4959431;28;44729;-64
2023/05/19 13:22:47;;;;;;;;;;;19.90;45.80;;;;;;4964313;28;45112;-63
2023/05/19 13:25:13;;;;;;;;;;;19.90;45.80;;;;;;4961682;28;46196;-64
2023/05/19 13:27:38;;;;;;;;;;;20.00;45.90;;;;;;4983337;28;45082;-63
2023/05/19 13:30:04;;;;;;;;;;;20.00;45.90;;;;;;4964353;28;45141;-64
2023/05/19 13:32:29;;;;;;;;;;;20.00;45.80;;;;;;4958135;28;45370;-65
2023/05/19 13:34:55;;;;;;;;;;;20.00;45.90;;;;;;4982019;28;46406;-63
2023/05/19 13:37:21;;;;;;;;;;;20.00;45.90;;;;;;4981694;28;44737;-64
2023/05/19 13:39:47;;;;;;;;;;;20.00;45.80;;;;;;4965195;28;45476;-63
2023/05/19 13:42:12;;;;;;;;;;;20.00;45.90;;;;;;4962218;28;46306;-63
2023/05/19 13:44:37;;;;;;;;;;;20.00;45.90;;;;;;4981817;28;45874;-63
2023/05/19 13:47:03;;;;;;;;;;;20.10;45.90;;;;;;4972444;28;45017;-63
2023/05/19 13:49:29;;;;;;;;;;;20.10;45.90;;;;;;4980618;28;45907;-64
2023/05/19 13:51:54;;;;;;;;;;;20.10;45.90;;;;;;4979163;28;44940;-63
2023/05/19 13:54:20;;;;;;;;;;;20.10;45.90;;;;;;4980977;28;45423;-66
2023/05/19 13:56:47;;;;;;;;;;;20.10;46.00;;;;;;4976497;28;44967;-65
2023/05/19 13:59:13;;;;;;;;;;;20.10;46.00;;;;;;4983433;28;45101;-64
2023/05/19 14:01:39;;;;;;;;;;;20.10;46.00;;;;;;4958813;28;45283;-65
2023/05/19 14:04:04;;;;;;;;;;;20.10;46.10;;;;;;4965211;28;45824;-61
2023/05/19 14:06:30;;;;;;;;;;;20.10;46.10;;;;;;4974308;28;45153;-65
2023/05/19 14:08:55;;;;;;;;;;;20.20;46.20;;;;;;4981403;28;45121;-63
2023/05/19 14:11:21;;;;;;;;;;;20.20;46.20;;;;;;4976705;28;44975;-63
2023/05/19 14:13:47;;;;;;;;;;;20.20;46.20;;;;;;4980377;28;45900;-63
2023/05/19 14:16:12;;;;;;;;;;;20.20;46.20;;;;;;4973958;28;45827;-62
2023/05/19 14:18:38;;;;;;;;;;;20.20;46.20;;;;;;4981640;28;45092;-62
2023/05/19 14:21:03;;;;;;;;;;;20.20;46.20;;;;;;4958525;28;45176;-63
2023/05/19 14:23:29;;;;;;;;;;;20.20;46.20;;;;;;4969255;28;45270;-63
2023/05/19 14:25:55;;;;;;;;;;;20.20;46.30;;;;;;4982852;28;45424;-64
2023/05/19 14:28:20;;;;;;;;;;;20.20;46.20;;;;;;4982431;28;45513;-63
2023/05/19 14:30:46;;;;;;;;;;;20.20;46.40;;;;;;4973175;28;45378;-63
2023/05/19 14:33:12;;;;;;;;;;;20.20;46.30;;;;;;4960459;28;46063;-66
2023/05/19 14:35:37;;;;;;;;;;;20.20;46.30;;;;;;4946557;28;44998;-63
2023/05/19 14:38:03;;;;;;;;;;;20.30;46.30;;;;;;4980174;28;45529;-63
2023/05/19 14:40:28;;;;;;;;;;;20.30;46.30;;;;;;4973928;28;45043;-63
2023/05/19 14:42:54;;;;;;;;;;;20.30;46.30;;;;;;4965572;28;46894;-63
2023/05/19 14:45:19;;;;;;;;;;;20.30;46.40;;;;;;4973108;28;44967;-66
2023/05/19 14:47:45;;;;;;;;;;;20.30;46.40;;;;;;4961727;28;45108;-64
2023/05/19 14:50:10;;;;;;;;;;;20.30;46.40;;;;;;4975923;28;45433;-64
2023/05/19 14:52:36;;;;;;;;;;;20.30;46.40;;;;;;4985460;28;47166;-64
2023/05/19 14:55:01;;;;;;;;;;;20.30;46.40;;;;;;4981994;28;45027;-63
2023/05/19 14:57:27;;;;;;;;;;;20.30;46.40;;;;;;4978319;28;45271;-63
2023/05/19 14:59:52;;;;;;;;;;;20.30;46.50;;;;;;4981123;28;45904;-63
2023/05/19 15:02:18;;;;;;;;;;;20.30;46.60;;;;;;4971866;28;45419;-65
2023/05/19 15:04:43;;;;;;;;;;;20.30;46.60;;;;;;4979409;28;44967;-62
2023/05/19 15:07:09;;;;;;;;;;;20.40;46.70;;;;;;4977308;28;45112;-63
2023/05/19 15:09:34;;;;;;;;;;;20.40;46.60;;;;;;4981598;28;44709;-64
2023/05/19 15:12:00;;;;;;;;;;;20.40;46.70;;;;;;4976994;28;46402;-64
2023/05/19 15:14:26;;;;;;;;;;;20.40;46.70;;;;;;4979656;28;44827;-63
2023/05/19 15:16:51;;;;;;;;;;;20.40;46.70;;;;;;4970627;28;45355;-63
2023/05/19 15:19:17;;;;;;;;;;;20.40;46.70;;;;;;4963995;28;45422;-63
2023/05/19 15:21:44;;;;;;;;;;;20.40;47.30;;;;;;4975108;28;46056;-63
2023/05/19 15:24:10;;;;;;;;;;;20.40;46.80;;;;;;4981288;28;45006;-63
2023/05/19 15:26:36;;;;;;;;;;;20.40;46.80;;;;;;4978340;28;45203;-63
2023/05/19 15:29:01;;;;;;;;;;;20.40;46.80;;;;;;4970753;28;45306;-62
2023/05/19 15:31:27;;;;;;;;;;;20.40;46.80;;;;;;4974480;28;45948;-62
2023/05/19 15:33:52;;;;;;;;;;;20.40;46.90;;;;;;4982884;28;45623;-62
2023/05/19 15:36:18;;;;;;;;;;;20.40;47.00;;;;;;4961364;28;45653;-61
2023/05/19 15:38:43;;;;;;;;;;;20.40;46.90;;;;;;4971369;28;45049;-65
2023/05/19 15:41:09;;;;;;;;;;;20.40;47.00;;;;;;4963599;28;46059;-63
2023/05/19 15:43:34;;;;;;;;;;;20.40;46.90;;;;;;4968094;28;45173;-63
2023/05/19 15:46:00;;;;;;;;;;;20.40;46.90;;;;;;4976588;28;45222;-63
2023/05/19 15:48:27;;;;;;;;;;;20.40;47.00;;;;;;4968516;28;44898;-63
2023/05/19 15:50:53;;;;;;;;;;;20.40;47.00;;;;;;4982074;28;45464;-64
2023/05/19 15:53:19;;;;;;;;;;;20.40;47.10;;;;;;4969319;28;44992;-64
2023/05/19 15:55:44;;;;;;;;;;;20.40;47.10;;;;;;4977632;28;44853;-63
2023/05/19 15:58:10;;;;;;;;;;;20.50;47.20;;;;;;4961067;28;45005;-64
2023/05/19 16:00:35;;;;;;;;;;;20.50;47.10;;;;;;4973571;28;46051;-63
2023/05/19 16:03:01;;;;;;;;;;;20.50;47.10;;;;;;4983078;28;44969;-63
2023/05/19 16:05:26;;;;;;;;;;;20.50;47.10;;;;;;4979274;28;44877;-67
2023/05/19 16:07:52;;;;;;;;;;;20.50;47.20;;;;;;4964684;28;45066;-63
2023/05/19 16:10:17;;;;;;;;;;;20.50;47.20;;;;;;4979769;28;45227;-63
2023/05/19 16:12:43;;;;;;;;;;;20.50;47.10;;;;;;4983170;28;44925;-62
2023/05/19 16:15:09;;;;;;;;;;;20.50;47.20;;;;;;4983294;28;45136;-64
2023/05/19 16:17:37;;;;;;;;;;;20.50;47.20;;;;;;4981321;28;45023;-64
2023/05/19 16:20:02;;;;;;;;;;;20.50;47.30;;;;;;4980780;28;45352;-66
2023/05/19 16:22:29;;;;;;;;;;;20.50;47.20;;;;;;4970678;28;45117;-64
2023/05/19 16:24:54;;;;;;;;;;;20.50;47.20;;;;;;4982731;28;45493;-65
2023/05/19 16:27:20;;;;;;;;;;;20.50;47.20;;;;;;4958669;28;45317;-63
2023/05/19 16:29:45;;;;;;;;;;;20.50;47.30;;;;;;4982156;28;45955;-64
2023/05/19 16:32:11;;;;;;;;;;;20.50;47.20;;;;;;4974022;28;45339;-66
2023/05/19 16:34:36;;;;;;;;;;;20.50;47.20;;;;;;4965430;28;44987;-64
2023/05/19 16:37:02;;;;;;;;;;;20.50;47.40;;;;;;4960904;28;45485;-64
2023/05/19 16:39:28;;;;;;;;;;;20.50;47.40;;;;;;4967884;28;45176;-65
2023/05/19 16:41:53;;;;;;;;;;;20.50;47.40;;;;;;4963248;28;45268;-64
2023/05/19 16:44:19;;;;;;;;;;;20.50;47.40;;;;;;4981921;28;49989;-63
2023/05/19 16:46:44;;;;;;;;;;;20.50;47.40;;;;;;4975112;28;45491;-64
2023/05/19 16:49:10;;;;;;;;;;;20.50;47.40;;;;;;4983552;28;45115;-63
2023/05/19 16:51:35;;;;;;;;;;;20.50;47.40;;;;;;4978272;28;45108;-63
2023/05/19 16:54:01;;;;;;;;;;;20.50;47.40;;;;;;4983916;28;46030;-63
2023/05/19 16:56:26;;;;;;;;;;;20.50;47.40;;;;;;4976089;28;45195;-64
2023/05/19 16:58:53;;;;;;;;;;;20.40;47.30;;;;;;4983742;28;44932;-64
2023/05/19 17:01:19;;;;;;;;;;;20.50;47.30;;;;;;4974098;28;46210;-64
2023/05/19 17:03:44;;;;;;;;;;;20.50;47.40;;;;;;4981023;28;44929;-63
2023/05/19 17:06:10;;;;;;;;;;;20.50;47.40;;;;;;4979074;28;45630;-64
2023/05/19 17:08:35;;;;;;;;;;;20.50;47.40;;;;;;4962813;28;45838;-64
2023/05/19 17:11:01;;;;;;;;;;;20.50;47.40;;;;;;4975322;28;45922;-63